Time;durP1;ratioP1;P1;durP2;ratioP2;P2;SDS_P1;SDS_P2;PMS_P1;PMS_P2;Temp;Humidity;BMP_temperature;BMP_pressure;BME280_temperature;BME280_humidity;BME280_pressure;Samples;Min_cycle;Max_cycle;Signal;HPM_P1;HPM_P2
2023/07/11 00:02:15;;;;;;;5.47;3.45;;;17.50;99.90;;;;;;4984811;28;20037;-56
2023/07/11 00:04:41;;;;;;;5.95;3.67;;;17.40;99.90;;;;;;4985096;28;20031;-56
2023/07/11 00:07:06;;;;;;;7.20;3.97;;;17.40;99.90;;;;;;4986268;28;20388;-57
2023/07/11 00:09:32;;;;;;;5.68;3.58;;;17.40;99.90;;;;;;4985070;28;20058;-57
2023/07/11 00:11:57;;;;;;;6.55;3.33;;;17.40;99.90;;;;;;4985866;28;20022;-57
2023/07/11 00:14:23;;;;;;;6.70;3.55;;;17.40;99.90;;;;;;4986106;28;20467;-56
2023/07/11 00:16:49;;;;;;;10.45;4.10;;;17.40;99.90;;;;;;4986105;28;20022;-57
2023/07/11 00:19:15;;;;;;;4.93;3.45;;;17.40;99.90;;;;;;4984760;28;20014;-57
2023/07/11 00:21:41;;;;;;;6.57;4.20;;;17.30;99.90;;;;;;4985740;28;20026;-57
2023/07/11 00:24:07;;;;;;;4.15;3.53;;;17.30;99.90;;;;;;4986076;28;20418;-57
2023/07/11 00:26:34;;;;;;;5.30;3.35;;;17.30;99.90;;;;;;4985758;28;20069;-56
2023/07/11 00:29:12;;;;;;;4.78;3.30;;;17.30;99.90;;;;;;4985839;28;20429;-57
2023/07/11 00:31:37;;;;;;;5.00;3.67;;;17.30;99.90;;;;;;4985754;28;20097;-57
2023/07/11 00:34:03;;;;;;;8.32;4.10;;;17.20;99.90;;;;;;4989432;28;20558;-56
2023/07/11 00:36:28;;;;;;;4.15;3.05;;;17.00;99.90;;;;;;4987926;28;20023;-57
2023/07/11 00:38:54;;;;;;;5.18;3.40;;;16.90;99.90;;;;;;4988947;28;20022;-57
2023/07/11 00:41:19;;;;;;;3.17;2.70;;;16.80;99.90;;;;;;4988939;28;20034;-57
2023/07/11 00:43:45;;;;;;;6.22;3.15;;;16.70;99.90;;;;;;4989404;28;20086;-57
2023/07/11 00:46:18;;;;;;;5.55;3.83;;;16.70;99.90;;;;;;4989174;28;20410;-56
2023/07/11 00:48:51;;;;;;;10.60;3.65;;;16.60;99.90;;;;;;4988807;28;20027;-57
2023/07/11 00:51:37;;;;;;;5.30;3.65;;;16.60;99.90;;;;;;4988321;28;20058;-57
2023/07/11 00:54:05;;;;;;;7.15;3.55;;;16.60;99.90;;;;;;4989273;28;20033;-57
2023/07/11 00:56:36;;;;;;;5.50;3.58;;;16.60;99.90;;;;;;4989112;28;20429;-56
2023/07/11 00:59:03;;;;;;;7.40;3.67;;;16.70;99.90;;;;;;4981324;28;20060;-57
2023/07/11 01:01:29;;;;;;;5.32;3.60;;;16.70;99.90;;;;;;4989047;28;20030;-57
2023/07/11 01:03:55;;;;;;;6.68;3.65;;;16.70;99.90;;;;;;4989340;28;20022;-56
2023/07/11 01:06:24;;;;;;;5.35;3.92;;;16.70;99.90;;;;;;4989028;28;20052;-57
2023/07/11 01:08:52;;;;;;;6.88;3.78;;;16.70;99.90;;;;;;4987539;28;20334;-57
2023/07/11 01:11:23;;;;;;;9.15;4.47;;;16.70;99.90;;;;;;4988287;28;20022;-57
2023/07/11 01:13:48;;;;;;;5.38;3.78;;;16.70;99.90;;;;;;4988766;28;20023;-57
2023/07/11 01:16:14;;;;;;;9.52;4.45;;;16.70;99.90;;;;;;4988437;28;20023;-57
2023/07/11 01:18:40;;;;;;;7.72;3.83;;;16.70;99.90;;;;;;4988436;28;20029;-56
2023/07/11 01:21:06;;;;;;;7.07;3.80;;;16.70;99.90;;;;;;4988358;28;20147;-56
2023/07/11 01:23:33;;;;;;;10.10;3.83;;;16.70;99.90;;;;;;4988594;28;20523;-57
2023/07/11 01:26:07;;;;;;;7.13;3.75;;;16.60;99.90;;;;;;4987068;28;20027;-57
2023/07/11 01:28:33;;;;;;;9.05;3.78;;;16.70;99.90;;;;;;4988992;28;20324;-61
2023/07/11 01:30:59;;;;;;;6.07;4.07;;;16.60;99.90;;;;;;4987963;28;20113;-57
2023/07/11 01:33:26;;;;;;;8.70;3.30;;;16.70;99.90;;;;;;4988290;28;20014;-57
2023/07/11 01:35:53;;;;;;;6.25;3.25;;;16.70;99.90;;;;;;4988379;28;20042;-57
2023/07/11 01:38:20;;;;;;;4.30;3.22;;;16.60;99.90;;;;;;4988066;28;20076;-57
2023/07/11 01:40:46;;;;;;;6.60;3.60;;;16.60;99.90;;;;;;4987741;28;20142;-56
2023/07/11 01:43:12;;;;;;;7.47;3.17;;;16.70;99.90;;;;;;4986619;28;20057;-57
2023/07/11 01:45:38;;;;;;;6.22;3.50;;;16.60;99.90;;;;;;4988715;28;20471;-57
2023/07/11 01:48:04;;;;;;;7.28;4.00;;;16.70;99.90;;;;;;4988064;28;20037;-57
2023/07/11 01:50:29;;;;;;;5.32;3.42;;;16.60;99.90;;;;;;4987633;28;20065;-57
2023/07/11 01:52:55;;;;;;;6.75;3.55;;;16.60;99.90;;;;;;4988392;28;20026;-57
2023/07/11 01:55:20;;;;;;;5.75;3.95;;;16.60;99.90;;;;;;4988143;28;20139;-57
2023/07/11 01:57:46;;;;;;;7.90;3.83;;;16.60;99.90;;;;;;4988061;28;20031;-57
2023/07/11 02:00:12;;;;;;;5.13;3.53;;;16.50;99.90;;;;;;4987740;28;20034;-57
2023/07/11 02:02:37;;;;;;;5.65;3.33;;;16.50;99.90;;;;;;4986237;28;20065;-57
2023/07/11 02:05:03;;;;;;;7.30;4.10;;;16.50;99.90;;;;;;4987827;28;20353;-57
2023/07/11 02:07:28;;;;;;;6.68;3.30;;;16.50;99.90;;;;;;4987802;28;20088;-57
2023/07/11 02:09:54;;;;;;;6.20;3.10;;;16.50;99.90;;;;;;4975870;28;20050;-57
2023/07/11 02:12:19;;;;;;;15.48;4.30;;;16.40;99.90;;;;;;4976800;28;20030;-57
2023/07/11 02:14:46;;;;;;;6.78;3.47;;;16.40;99.90;;;;;;4987975;28;20045;-56
2023/07/11 02:17:14;;;;;;;6.13;3.75;;;16.40;99.90;;;;;;4986551;28;20639;-56
2023/07/11 02:19:41;;;;;;;7.07;3.95;;;16.40;99.90;;;;;;4987903;28;20022;-56
2023/07/11 02:22:08;;;;;;;8.80;3.83;;;16.30;99.90;;;;;;4987336;28;20368;-56
2023/07/11 02:24:34;;;;;;;6.10;3.78;;;16.40;99.90;;;;;;4986452;28;20327;-56
2023/07/11 02:26:59;;;;;;;6.15;3.50;;;16.30;99.90;;;;;;4987712;28;20447;-56
2023/07/11 02:29:25;;;;;;;7.53;3.80;;;16.20;99.90;;;;;;4987543;28;20434;-56
2023/07/11 02:31:50;;;;;;;5.68;3.20;;;16.20;99.90;;;;;;4987074;28;20028;-56
2023/07/11 02:34:16;;;;;;;9.35;4.30;;;16.20;99.90;;;;;;4987177;28;20053;-56
2023/07/11 02:36:42;;;;;;;5.75;3.33;;;16.20;99.90;;;;;;4987849;28;20024;-56
2023/07/11 02:39:07;;;;;;;6.43;3.20;;;16.20;99.90;;;;;;4987795;28;20483;-56
2023/07/11 02:41:33;;;;;;;5.43;3.30;;;16.10;99.90;;;;;;4986965;28;20044;-57
2023/07/11 02:43:58;;;;;;;7.18;3.97;;;16.10;99.90;;;;;;4987330;28;20030;-56
2023/07/11 02:46:24;;;;;;;6.30;4.00;;;16.10;99.90;;;;;;4987225;28;20041;-56
2023/07/11 02:48:50;;;;;;;5.57;3.08;;;16.10;99.90;;;;;;4987469;28;20038;-56
2023/07/11 02:51:16;;;;;;;6.28;3.85;;;16.10;99.90;;;;;;4986531;28;20395;-56
2023/07/11 02:53:41;;;;;;;4.25;3.30;;;16.10;99.90;;;;;;4987226;28;20039;-56
2023/07/11 02:56:07;;;;;;;6.57;3.60;;;16.10;99.90;;;;;;4986344;28;20026;-56
2023/07/11 02:58:33;;;;;;;6.32;3.65;;;16.10;99.90;;;;;;4987122;28;20031;-56
2023/07/11 03:01:00;;;;;;;5.82;3.67;;;16.00;99.90;;;;;;4987134;28;20035;-56
2023/07/11 03:03:26;;;;;;;8.23;3.70;;;16.10;99.90;;;;;;4987068;28;20050;-56
2023/07/11 03:05:54;;;;;;;4.93;3.42;;;16.10;99.90;;;;;;4987002;28;20023;-57
2023/07/11 03:08:19;;;;;;;6.03;3.67;;;16.10;99.90;;;;;;4987120;28;20471;-57
2023/07/11 03:10:45;;;;;;;6.45;3.53;;;16.10;99.90;;;;;;4986717;28;20033;-57
2023/07/11 03:13:11;;;;;;;6.85;3.67;;;16.10;99.90;;;;;;4987217;28;20426;-57
2023/07/11 03:15:38;;;;;;;5.18;3.58;;;16.00;99.90;;;;;;4986726;28;20026;-57
2023/07/11 03:18:05;;;;;;;5.38;3.42;;;15.90;99.90;;;;;;4986844;28;20019;-56
2023/07/11 03:20:34;;;;;;;6.60;3.50;;;15.90;99.90;;;;;;4986728;28;20037;-57
2023/07/11 03:23:00;;;;;;;6.55;3.00;;;15.90;99.90;;;;;;4986896;28;20034;-57
2023/07/11 03:25:25;;;;;;;6.05;3.65;;;15.80;99.90;;;;;;4986852;28;20026;-57
2023/07/11 03:27:51;;;;;;;6.75;3.85;;;15.80;99.90;;;;;;4986574;28;20208;-57
2023/07/11 03:30:16;;;;;;;4.78;3.55;;;15.80;99.90;;;;;;4986498;28;20447;-57
2023/07/11 03:32:42;;;;;;;4.57;3.65;;;15.80;99.90;;;;;;4984964;28;20023;-57
2023/07/11 03:35:08;;;;;;;6.00;3.65;;;15.70;99.90;;;;;;4986939;28;20249;-57
2023/07/11 03:37:33;;;;;;;4.65;2.95;;;15.70;99.90;;;;;;4987012;28;20033;-56
2023/07/11 03:39:59;;;;;;;5.95;3.85;;;15.60;99.90;;;;;;4986460;28;20034;-57
2023/07/11 03:42:24;;;;;;;5.70;3.67;;;15.70;99.90;;;;;;4986018;28;20040;-57
2023/07/11 03:44:50;;;;;;;4.75;3.50;;;15.60;99.90;;;;;;4986317;28;20061;-57
2023/07/11 03:47:17;;;;;;;5.90;3.70;;;15.70;99.90;;;;;;4986348;28;20659;-57
2023/07/11 03:49:42;;;;;;;7.88;3.92;;;15.70;99.90;;;;;;4986398;28;20538;-57
2023/07/11 03:52:08;;;;;;;6.80;4.10;;;15.70;99.90;;;;;;4984465;28;20038;-57
2023/07/11 03:54:33;;;;;;;7.15;3.60;;;15.80;99.90;;;;;;4984924;28;20018;-57
2023/07/11 03:56:59;;;;;;;9.77;4.85;;;15.80;99.90;;;;;;4986505;28;20064;-57
2023/07/11 03:59:24;;;;;;;11.35;4.40;;;15.80;99.90;;;;;;4986199;28;20029;-57
2023/07/11 04:01:50;;;;;;;6.95;3.92;;;15.80;99.90;;;;;;4985955;28;20026;-57
2023/07/11 04:04:15;;;;;;;6.70;3.75;;;15.80;99.90;;;;;;4986074;28;20023;-56
2023/07/11 04:06:41;;;;;;;5.85;3.55;;;15.80;99.90;;;;;;4988014;28;20123;-56
2023/07/11 04:09:07;;;;;;;4.25;3.45;;;15.90;99.90;;;;;;4989928;28;20027;-56
2023/07/11 04:11:33;;;;;;;5.05;3.17;;;15.90;99.90;;;;;;4987916;28;20099;-56
2023/07/11 04:13:58;;;;;;;5.22;3.25;;;15.90;99.90;;;;;;4989673;28;20111;-56
2023/07/11 04:16:24;;;;;;;8.65;3.53;;;16.00;99.90;;;;;;4989755;28;20054;-56
2023/07/11 04:18:49;;;;;;;5.82;3.38;;;16.00;99.90;;;;;;4989365;28;20376;-56
2023/07/11 04:21:16;;;;;;;7.22;3.00;;;16.00;99.90;;;;;;4988996;28;20103;-56
2023/07/11 04:23:42;;;;;;;4.30;3.20;;;16.00;99.90;;;;;;4989512;28;20030;-56
2023/07/11 04:26:08;;;;;;;10.50;3.92;;;16.10;99.90;;;;;;4989628;28;20484;-56
2023/07/11 04:28:33;;;;;;;4.93;3.28;;;16.10;99.90;;;;;;4989314;28;20537;-56
2023/07/11 04:30:59;;;;;;;3.65;2.90;;;16.10;99.90;;;;;;4989499;28;20072;-56
2023/07/11 04:33:24;;;;;;;7.32;3.40;;;16.20;99.90;;;;;;4989443;28;20031;-56
2023/07/11 04:35:50;;;;;;;4.35;3.53;;;16.30;99.90;;;;;;4989595;28;20027;-56
2023/07/11 04:38:16;;;;;;;8.35;3.05;;;16.30;99.90;;;;;;4989630;28;20174;-55
2023/07/11 04:40:42;;;;;;;7.00;3.67;;;16.40;99.90;;;;;;4988903;28;20049;-56
2023/07/11 04:43:07;;;;;;;7.82;3.30;;;16.50;99.90;;;;;;4989600;28;20026;-55
2023/07/11 04:45:34;;;;;;;7.22;2.90;;;16.50;99.90;;;;;;4987725;28;20482;-56
2023/07/11 04:48:00;;;;;;;4.78;3.30;;;16.60;99.90;;;;;;4987463;28;20052;-56
2023/07/11 04:50:26;;;;;;;10.48;3.45;;;16.70;99.90;;;;;;4988959;28;20589;-56
2023/07/11 04:52:51;;;;;;;6.97;3.15;;;16.70;99.90;;;;;;4989024;28;20121;-56
2023/07/11 04:55:17;;;;;;;3.88;2.50;;;16.80;99.90;;;;;;4987741;28;20054;-56
2023/07/11 04:57:43;;;;;;;5.53;2.72;;;16.90;99.90;;;;;;4987709;28;20022;-55
2023/07/11 05:00:09;;;;;;;3.30;2.50;;;17.00;99.90;;;;;;4987656;28;20038;-56
2023/07/11 05:02:34;;;;;;;6.13;2.72;;;17.10;99.90;;;;;;4988036;28;20029;-56
2023/07/11 05:05:00;;;;;;;7.47;2.70;;;17.20;99.90;;;;;;4988661;28;20034;-56
2023/07/11 05:07:26;;;;;;;9.65;3.05;;;17.30;99.90;;;;;;4988235;28;20388;-56
2023/07/11 05:09:51;;;;;;;5.82;2.63;;;17.40;99.90;;;;;;4987711;28;20034;-55
2023/07/11 05:12:17;;;;;;;4.85;2.95;;;17.40;99.90;;;;;;4986775;28;20022;-55
2023/07/11 05:14:42;;;;;;;6.40;2.55;;;17.50;99.90;;;;;;4988733;28;20033;-56
2023/07/11 05:17:08;;;;;;;6.68;2.60;;;17.60;99.90;;;;;;4988291;28;20026;-56
2023/07/11 05:19:33;;;;;;;12.35;2.30;;;17.70;99.90;;;;;;4988171;28;20022;-55
2023/07/11 05:21:59;;;;;;;4.22;2.28;;;17.80;99.90;;;;;;4988318;28;20483;-56
2023/07/11 05:24:25;;;;;;;14.80;2.60;;;17.80;99.90;;;;;;4988540;28;20030;-56
2023/07/11 05:26:51;;;;;;;9.15;2.92;;;17.90;99.90;;;;;;4985943;28;20052;-56
2023/07/11 05:29:16;;;;;;;4.53;2.20;;;18.00;99.90;;;;;;4987997;28;20035;-56
2023/07/11 05:31:43;;;;;;;5.20;2.60;;;18.10;99.90;;;;;;4987820;28;20023;-56
2023/07/11 05:34:11;;;;;;;4.50;2.45;;;18.20;99.90;;;;;;4988408;28;20411;-56
2023/07/11 05:36:37;;;;;;;8.88;4.50;;;18.30;99.90;;;;;;4988155;28;20022;-57
2023/07/11 05:39:06;;;;;;;5.20;3.13;;;18.40;99.90;;;;;;4986985;28;20391;-57
2023/07/11 05:41:33;;;;;;;7.63;3.05;;;18.50;99.90;;;;;;4987836;28;20050;-57
2023/07/11 05:43:59;;;;;;;4.38;2.42;;;18.60;99.90;;;;;;4981065;28;20158;-58
2023/07/11 05:46:25;;;;;;;5.97;2.40;;;18.60;99.90;;;;;;4982684;28;20039;-58
2023/07/11 05:48:52;;;;;;;9.32;2.90;;;18.70;99.90;;;;;;4986227;28;20022;-57
2023/07/11 05:51:18;;;;;;;8.75;2.75;;;18.80;99.90;;;;;;4986501;28;20030;-57
2023/07/11 05:53:45;;;;;;;7.47;3.13;;;18.90;99.90;;;;;;4987961;28;20024;-58
2023/07/11 05:56:10;;;;;;;7.53;2.65;;;19.00;99.90;;;;;;4986226;28;20031;-57
2023/07/11 05:58:36;;;;;;;6.22;2.65;;;19.00;99.90;;;;;;4979782;28;20027;-57
2023/07/11 06:01:02;;;;;;;7.65;2.80;;;19.10;99.90;;;;;;4986264;28;20098;-57
2023/07/11 06:03:30;;;;;;;5.85;2.45;;;19.20;99.90;;;;;;4981888;28;20034;-57
2023/07/11 06:06:03;;;;;;;7.57;2.72;;;19.30;99.90;;;;;;4981119;28;20015;-57
2023/07/11 06:08:30;;;;;;;5.07;2.53;;;19.40;99.90;;;;;;4987817;28;20026;-58
2023/07/11 06:11:00;;;;;;;7.65;2.85;;;19.50;99.90;;;;;;4986315;28;20475;-57
2023/07/11 06:13:27;;;;;;;8.00;2.95;;;19.60;99.90;;;;;;4987709;28;20026;-57
2023/07/11 06:16:02;;;;;;;8.82;2.42;;;19.70;99.90;;;;;;4988045;28;20070;-57
2023/07/11 06:18:32;;;;;;;7.72;2.55;;;19.70;99.90;;;;;;4984804;28;20034;-57
2023/07/11 06:20:57;;;;;;;5.45;2.53;;;19.80;99.90;;;;;;4986936;28;20079;-57
2023/07/11 06:23:23;;;;;;;5.35;2.15;;;19.90;99.90;;;;;;4987271;28;20105;-57
2023/07/11 06:25:49;;;;;;;3.83;2.00;;;20.00;99.90;;;;;;4987350;28;20033;-57
2023/07/11 06:28:14;;;;;;;4.80;2.17;;;20.10;99.90;;;;;;4985671;28;20103;-58
2023/07/11 06:30:41;;;;;;;4.88;2.22;;;20.20;99.90;;;;;;4985745;28;20029;-57
2023/07/11 06:33:12;;;;;;;5.60;2.20;;;20.30;99.90;;;;;;4985598;28;20499;-57
2023/07/11 06:35:40;;;;;;;8.07;2.45;;;20.40;99.90;;;;;;4985414;28;20037;-57
2023/07/11 06:38:07;;;;;;;6.22;2.90;;;20.60;99.90;;;;;;4987450;28;20026;-57
2023/07/11 06:40:32;;;;;;;5.32;2.20;;;20.60;99.90;;;;;;4984240;28;20053;-57
2023/07/11 06:42:58;;;;;;;5.47;2.58;;;20.70;99.90;;;;;;4987459;28;20027;-57
2023/07/11 06:45:24;;;;;;;4.75;2.47;;;20.80;99.90;;;;;;4978745;28;20178;-57
2023/07/11 06:47:49;;;;;;;8.27;2.80;;;20.90;99.90;;;;;;4985541;28;20167;-58
2023/07/11 06:50:15;;;;;;;4.35;2.28;;;21.00;99.90;;;;;;4978045;28;20129;-58
2023/07/11 06:52:40;;;;;;;5.30;2.35;;;21.10;99.90;;;;;;4982386;28;20040;-57
2023/07/11 06:55:07;;;;;;;4.28;2.80;;;21.20;99.90;;;;;;4980279;28;20026;-57
2023/07/11 06:57:33;;;;;;;7.97;2.85;;;21.30;99.90;;;;;;4986735;28;20433;-58
2023/07/11 06:59:58;;;;;;;6.35;2.50;;;21.40;99.90;;;;;;4986664;28;20039;-57
2023/07/11 07:02:24;;;;;;;4.78;2.40;;;21.50;99.90;;;;;;4981487;28;20035;-57
2023/07/11 07:04:49;;;;;;;5.65;2.42;;;21.60;99.90;;;;;;4986739;28;20058;-57
2023/07/11 07:07:15;;;;;;;5.53;2.10;;;21.70;99.90;;;;;;4984673;28;20476;-57
2023/07/11 07:09:40;;;;;;;8.07;2.90;;;21.80;99.90;;;;;;4974726;28;20030;-57
2023/07/11 07:12:06;;;;;;;5.35;2.75;;;21.90;99.90;;;;;;4976313;28;20034;-57
2023/07/11 07:14:31;;;;;;;6.90;2.60;;;22.00;99.90;;;;;;4990523;28;20532;-57
2023/07/11 07:16:57;;;;;;;6.45;2.75;;;22.20;99.90;;;;;;5014840;28;20038;-59
2023/07/11 07:19:22;;;;;;;6.20;2.50;;;22.30;99.90;;;;;;4986988;28;20028;-59
2023/07/11 07:21:48;;;;;;;5.63;2.50;;;22.40;99.90;;;;;;4983243;28;20115;-59
2023/07/11 07:24:13;;;;;;;6.47;2.92;;;22.40;99.90;;;;;;4986592;28;20121;-58
2023/07/11 07:26:41;;;;;;;4.80;2.55;;;22.60;99.90;;;;;;4985382;28;20207;-58
2023/07/11 07:29:06;;;;;;;6.03;2.90;;;22.70;99.90;;;;;;4978429;28;20018;-58
2023/07/11 07:31:32;;;;;;;4.18;2.55;;;22.80;99.90;;;;;;4985862;28;20057;-58
2023/07/11 07:33:57;;;;;;;6.25;2.45;;;23.00;99.90;;;;;;4986111;28;20046;-58
2023/07/11 07:36:23;;;;;;;6.70;2.78;;;23.10;99.50;;;;;;4986019;28;20022;-58
2023/07/11 07:38:48;;;;;;;8.52;2.72;;;23.10;99.50;;;;;;4997275;28;20030;-58
2023/07/11 07:41:14;;;;;;;6.78;2.67;;;23.20;98.80;;;;;;5008315;28;20030;-58
2023/07/11 07:43:39;;;;;;;9.13;2.63;;;23.30;98.30;;;;;;4986166;28;20031;-58
2023/07/11 07:46:06;;;;;;;6.68;2.72;;;23.40;98.10;;;;;;4983127;28;20026;-58
2023/07/11 07:48:32;;;;;;;7.82;2.95;;;23.50;98.40;;;;;;4986664;28;20648;-57
2023/07/11 07:51:03;;;;;;;5.95;2.92;;;23.50;97.90;;;;;;4985726;28;20027;-58
2023/07/11 07:53:28;;;;;;;;;;;23.70;97.20;;;;;;5005848;28;20019;-59
2023/07/11 07:55:53;;;;;;;5.45;2.83;;;23.70;96.90;;;;;;5010925;28;19924;-59
2023/07/11 07:58:19;;;;;;;4.55;2.53;;;23.90;96.90;;;;;;4992362;28;20069;-59
2023/07/11 08:00:45;;;;;;;6.80;2.85;;;24.00;96.00;;;;;;5036388;28;20424;-58
2023/07/11 08:03:10;;;;;;;7.10;2.72;;;24.20;95.80;;;;;;5024158;28;20390;-56
2023/07/11 08:05:37;;;;;;;6.63;2.70;;;24.30;95.60;;;;;;5011633;28;20484;-58
2023/07/11 08:08:04;;;;;;;6.70;2.67;;;24.40;94.70;;;;;;5009646;28;20052;-58
2023/07/11 08:10:31;;;;;;;5.18;2.55;;;24.60;95.00;;;;;;4996386;28;20034;-59
2023/07/11 08:12:57;;;;;;;6.05;2.33;;;24.80;94.30;;;;;;5002733;28;20032;-59
2023/07/11 08:15:22;;;;;;;4.25;2.40;;;24.90;94.10;;;;;;5029075;28;20019;-58
2023/07/11 08:17:49;;;;;;;4.38;2.72;;;25.10;94.10;;;;;;5014217;28;20025;-58
2023/07/11 08:20:14;;;;;;;5.93;2.63;;;25.40;93.80;;;;;;5009971;28;20027;-57
2023/07/11 08:22:42;;;;;;;5.75;2.17;;;26.10;92.50;;;;;;4983987;28;20038;-56
2023/07/11 08:25:08;;;;;;;4.22;1.98;;;27.10;90.90;;;;;;4986021;28;20483;-56
2023/07/11 08:27:34;;;;;;;5.70;2.08;;;28.20;89.80;;;;;;4985934;28;20473;-56
2023/07/11 08:29:59;;;;;;;5.28;2.05;;;29.40;86.60;;;;;;4986218;28;20032;-57
2023/07/11 08:32:25;;;;;;;7.70;2.63;;;30.10;82.90;;;;;;4981325;28;20042;-58
2023/07/11 08:34:50;;;;;;;7.00;2.45;;;31.00;76.60;;;;;;4977961;28;20056;-58
2023/07/11 08:37:16;;;;;;;16.55;3.00;;;31.50;74.90;;;;;;4985797;28;20045;-58
2023/07/11 08:39:41;;;;;;;2.88;2.53;;;31.50;72.30;;;;;;4985635;28;20395;-58
2023/07/11 08:42:27;;;;;;;8.70;2.15;;;31.90;70.50;;;;;;4980057;28;20031;-58
2023/07/11 08:45:15;;;;;;;3.17;1.90;;;32.00;70.60;;;;;;4979937;28;20067;-58
2023/07/11 08:47:45;;;;;;;5.93;2.20;;;33.10;69.10;;;;;;4984143;28;20080;-58
2023/07/11 08:50:17;;;;;;;4.75;1.90;;;32.70;67.20;;;;;;4984316;28;20559;-58
2023/07/11 08:52:44;;;;;;;5.53;2.15;;;33.30;67.00;;;;;;4985037;28;20050;-58
2023/07/11 08:55:25;;;;;;;3.55;2.20;;;34.40;66.00;;;;;;4988810;28;20532;-57
2023/07/11 08:58:06;;;;;;;4.03;2.05;;;34.80;62.20;;;;;;4988016;28;20038;-58
2023/07/11 09:00:32;;;;;;;4.22;2.30;;;34.30;63.10;;;;;;4995347;28;20056;-57
2023/07/11 09:03:12;;;;;;;5.28;2.25;;;34.00;61.70;;;;;;4988795;28;20063;-58
2023/07/11 09:05:43;;;;;;;4.22;1.85;;;33.80;62.10;;;;;;4988764;28;20050;-57
2023/07/11 09:08:14;;;;;;;7.32;2.25;;;34.30;62.90;;;;;;4985303;28;20080;-57
2023/07/11 09:11:10;;;;;;;3.67;2.17;;;34.10;61.00;;;;;;4987763;28;20941;-57
2023/07/11 09:13:56;;;;;;;6.22;2.83;;;34.10;61.60;;;;;;4980187;28;20495;-57
2023/07/11 09:16:32;;;;;;;5.38;2.30;;;35.40;61.10;;;;;;4989212;28;20030;-57
2023/07/11 09:19:23;;;;;;;6.00;2.40;;;36.70;60.50;;;;;;4998865;28;20031;-57
2023/07/11 09:22:04;;;;;;;6.43;2.08;;;36.40;57.60;;;;;;4986759;28;20233;-57
2023/07/11 09:25:21;;;;;;;8.32;2.33;;;36.50;56.70;;;;;;4988692;28;20059;-55
2023/07/11 09:27:54;;;;;;;5.88;2.30;;;35.70;57.30;;;;;;5031161;28;20025;-55
2023/07/11 09:30:35;;;;;;;2.10;1.88;;;34.90;59.80;;;;;;5047484;28;20156;-55
2023/07/11 09:33:22;;;;;;;5.00;2.35;;;35.80;57.10;;;;;;5011461;28;20073;-55
2023/07/11 09:35:50;;;;;;;4.93;2.15;;;36.10;57.90;;;;;;4988306;28;20083;-55
2023/07/11 09:38:46;;;;;;;4.73;2.17;;;36.70;57.90;;;;;;4988631;28;20488;-55
2023/07/11 09:41:19;;;;;;;4.30;1.90;;;37.50;54.60;;;;;;4988392;28;20261;-55
2023/07/11 09:43:44;;;;;;;2.90;2.08;;;36.70;53.20;;;;;;4989109;28;20034;-55
2023/07/11 09:46:23;;;;;;;5.63;2.00;;;37.00;53.70;;;;;;4988556;28;20476;-55
2023/07/11 09:48:51;;;;;;;;;;;36.60;53.90;;;;;;4988830;28;20030;-55
2023/07/11 09:51:39;;;;;;;6.80;2.40;;;35.40;54.50;;;;;;4988165;28;20243;-55
2023/07/11 09:54:17;;;;;;;4.93;2.25;;;35.50;55.50;;;;;;4988642;28;20105;-55
2023/07/11 09:56:45;;;;;;;4.68;2.42;;;37.20;56.30;;;;;;4987147;28;20022;-55
2023/07/11 09:59:12;;;;;;;4.78;2.30;;;37.00;52.90;;;;;;5019132;28;20059;-55
2023/07/11 10:01:38;;;;;;;5.05;2.28;;;37.30;53.90;;;;;;5004956;28;20365;-55
2023/07/11 10:04:09;;;;;;;4.25;2.08;;;37.80;54.30;;;;;;4969800;28;20034;-55
2023/07/11 10:06:41;;;;;;;2.30;2.10;;;39.00;54.10;;;;;;4990181;28;20028;-55
2023/07/11 10:09:20;;;;;;;4.07;2.40;;;38.60;51.10;;;;;;5016951;28;20039;-55
2023/07/11 10:11:59;;;;;;;3.90;2.28;;;38.90;51.50;;;;;;5011727;28;20114;-57
2023/07/11 10:14:39;;;;;;;4.25;2.17;;;38.10;52.00;;;;;;4987657;28;20109;-55
2023/07/11 10:17:33;;;;;;;2.95;1.98;;;37.40;52.20;;;;;;4986574;28;20067;-55
2023/07/11 10:20:02;;;;;;;3.75;2.63;;;37.20;51.70;;;;;;4972325;28;20066;-55
2023/07/11 10:22:29;;;;;;;;;;;36.70;53.10;;;;;;4989304;28;20029;-55
2023/07/11 10:25:14;;;;;;;3.97;2.25;;;36.20;55.10;;;;;;4989011;28;20004;-55
2023/07/11 10:27:41;;;;;;;4.03;2.40;;;36.80;54.70;;;;;;4981931;28;20480;-57
2023/07/11 10:30:30;;;;;;;3.42;2.22;;;37.90;54.00;;;;;;4992609;28;20022;-57
2023/07/11 10:33:01;;;;;;;3.60;2.13;;;37.50;51.40;;;;;;5029406;28;20420;-57
2023/07/11 10:35:26;;;;;;;3.78;2.70;;;37.60;52.30;;;;;;5005912;28;20025;-57
2023/07/11 10:38:04;;;;;;;2.53;2.25;;;36.80;54.10;;;;;;5023805;28;20065;-56
2023/07/11 10:40:43;;;;;;;5.22;2.00;;;38.00;52.20;;;;;;4986918;28;20488;-56
2023/07/11 10:43:37;;;;;;;4.97;2.78;;;37.20;51.50;;;;;;4987384;28;20031;-56
2023/07/11 10:46:12;;;;;;;3.67;2.47;;;37.80;53.60;;;;;;4987267;28;20471;-56
2023/07/11 10:48:53;;;;;;;5.53;2.47;;;38.30;51.40;;;;;;4979293;28;20034;-56
2023/07/11 10:51:28;;;;;;;3.58;2.08;;;37.70;51.40;;;;;;4986712;28;20427;-56
2023/07/11 10:54:03;;;;;;;2.70;2.40;;;38.00;51.70;;;;;;4973401;28;20026;-57
2023/07/11 10:56:37;;;;;;;2.38;2.03;;;38.10;51.30;;;;;;5004340;28;20561;-56
2023/07/11 10:59:02;;;;;;;5.57;2.65;;;38.40;50.30;;;;;;4998777;28;20065;-56
2023/07/11 11:01:57;;;;;;;5.82;2.58;;;38.00;50.90;;;;;;5007837;28;20051;-56
2023/07/11 11:04:35;;;;;;;4.88;2.40;;;37.50;51.80;;;;;;4977249;28;20182;-57
2023/07/11 11:07:26;;;;;;;4.28;2.05;;;37.80;51.80;;;;;;4985625;28;20207;-56
2023/07/11 11:10:27;;;;;;;3.20;2.55;;;37.50;52.20;;;;;;4984760;28;20160;-56
2023/07/11 11:12:52;;;;;;;3.28;2.50;;;37.70;52.70;;;;;;4985585;28;20036;-57
2023/07/11 11:15:45;;;;;;;5.57;2.53;;;37.90;52.50;;;;;;4986517;28;20023;-57
2023/07/11 11:18:34;;;;;;;2.83;2.45;;;38.10;52.70;;;;;;4986974;28;20499;-56
2023/07/11 11:21:16;;;;;;;6.82;3.00;;;38.90;51.30;;;;;;4986321;28;20030;-57
2023/07/11 11:24:09;;;;;;;3.13;2.65;;;38.60;51.30;;;;;;4986654;28;20045;-56
2023/07/11 11:26:41;;;;;;;2.95;2.60;;;39.60;50.70;;;;;;4986488;28;20498;-56
2023/07/11 11:29:41;;;;;;;5.22;2.47;;;38.90;50.20;;;;;;4986481;28;20392;-57
2023/07/11 11:32:09;;;;;;;5.22;2.95;;;40.00;49.00;;;;;;4998869;28;20030;-57
2023/07/11 11:34:57;;;;;;;4.90;2.95;;;38.50;48.40;;;;;;4986712;28;20027;-56
2023/07/11 11:37:55;;;;;;;4.20;2.77;;;37.50;50.00;;;;;;4986828;28;20058;-57
2023/07/11 11:40:25;;;;;;;5.82;2.78;;;36.40;51.50;;;;;;5018542;28;20042;-56
2023/07/11 11:43:05;;;;;;;4.05;2.92;;;36.70;52.90;;;;;;4986371;28;20118;-56
2023/07/11 11:45:32;;;;;;;9.50;3.20;;;37.10;54.20;;;;;;4985443;28;20018;-56
2023/07/11 11:48:02;;;;;;;6.93;2.88;;;37.20;51.10;;;;;;4982914;28;20065;-56
2023/07/11 11:50:29;;;;;;;6.43;3.20;;;35.80;53.20;;;;;;4980695;28;20038;-56
2023/07/11 11:52:56;;;;;;;5.90;2.75;;;35.90;53.70;;;;;;4985332;28;20038;-56
2023/07/11 11:55:31;;;;;;;5.82;3.38;;;36.10;56.60;;;;;;4986356;28;20109;-56
2023/07/11 11:57:57;;;;;;;4.93;2.60;;;37.10;52.30;;;;;;4983885;28;20189;-56
2023/07/11 12:00:36;;;;;;;5.63;2.85;;;37.80;53.40;;;;;;4976306;28;20079;-56
2023/07/11 12:03:03;;;;;;;3.50;2.78;;;38.90;52.10;;;;;;4986391;28;20433;-56
2023/07/11 12:05:29;;;;;;;10.13;2.90;;;38.80;51.20;;;;;;4986251;28;20045;-56
2023/07/11 12:08:16;;;;;;;4.43;2.70;;;38.20;50.20;;;;;;4986451;28;20023;-56
2023/07/11 12:11:06;;;;;;;5.15;3.22;;;37.70;53.10;;;;;;4985741;28;20522;-56
2023/07/11 12:13:34;;;;;;;5.40;3.33;;;37.50;53.10;;;;;;4983189;28;20507;-56
2023/07/11 12:16:21;;;;;;;6.70;3.30;;;37.50;53.50;;;;;;4986079;28;20467;-56
2023/07/11 12:18:52;;;;;;;5.78;3.20;;;37.20;52.10;;;;;;4985978;28;20034;-56
2023/07/11 12:21:31;;;;;;;5.90;3.80;;;36.40;52.70;;;;;;4984482;28;20395;-56
2023/07/11 12:24:19;;;;;;;3.45;3.15;;;35.90;54.80;;;;;;4986039;28;20491;-57
2023/07/11 12:26:44;;;;;;;3.78;3.42;;;35.50;54.30;;;;;;4985056;28;20022;-56
2023/07/11 12:29:40;;;;;;;5.43;3.97;;;35.50;54.60;;;;;;4987865;28;20033;-56
2023/07/11 12:32:30;;;;;;;5.97;4.32;;;35.50;53.80;;;;;;4989040;28;20043;-56
2023/07/11 12:35:05;;;;;;;6.18;4.40;;;34.50;53.80;;;;;;4983111;28;20018;-56
2023/07/11 12:37:55;;;;;;;7.13;4.47;;;33.90;54.80;;;;;;4978574;28;20047;-56
2023/07/11 12:40:27;;;;;;;6.95;4.55;;;33.10;56.00;;;;;;4988740;28;20023;-56
2023/07/11 12:43:10;;;;;;;6.47;4.53;;;32.80;55.10;;;;;;4988075;28;20026;-56
2023/07/11 12:45:37;;;;;;;6.03;4.47;;;32.90;55.70;;;;;;4985804;28;20092;-56
2023/07/11 12:48:12;;;;;;;6.65;5.05;;;33.00;56.10;;;;;;4989202;28;20026;-56
2023/07/11 12:50:46;;;;;;;10.18;4.80;;;33.10;56.80;;;;;;4987429;28;20488;-56
2023/07/11 12:53:12;;;;;;;10.23;5.13;;;33.00;55.90;;;;;;4971834;28;20042;-56
2023/07/11 12:55:40;;;;;;;6.93;5.18;;;32.70;56.90;;;;;;4972813;28;20053;-56
2023/07/11 12:58:14;;;;;;;11.75;5.50;;;32.40;57.00;;;;;;4972639;28;20109;-56
2023/07/11 13:00:40;;;;;;;10.15;5.03;;;32.20;58.50;;;;;;4989177;28;20494;-56
2023/07/11 13:03:30;;;;;;;8.27;5.25;;;32.30;58.10;;;;;;4989120;28;20022;-56